Time;durP1;ratioP1;P1;durP2;ratioP2;P2;SDS_P1;SDS_P2;PMS_P1;PMS_P2;Temp;Humidity;BMP_temperature;BMP_pressure;BME280_temperature;BME280_humidity;BME280_pressure;Samples;Min_cycle;Max_cycle;Signal;HPM_P1;HPM_P2
2021/08/20 00:01:51;;;;;;;3.08;2.00;;;;;;;;;;5070719;28;20111;-65
2021/08/20 00:04:16;;;;;;;3.65;2.15;;;;;;;;;;5068788;28;20036;-65
2021/08/20 00:06:41;;;;;;;3.40;2.15;;;;;;;;;;5061856;28;20034;-66
2021/08/20 00:09:09;;;;;;;2.63;1.90;;;;;;;;;;5084580;28;20038;-67
2021/08/20 00:11:35;;;;;;;3.35;1.70;;;;;;;;;;5061694;28;20266;-65
2021/08/20 00:14:00;;;;;;;3.60;1.90;;;;;;;;;;5092704;28;20020;-66
2021/08/20 00:16:25;;;;;;;4.80;2.40;;;;;;;;;;5092907;28;20483;-66
2021/08/20 00:18:50;;;;;;;4.00;1.80;;;;;;;;;;5077138;28;20289;-66
2021/08/20 00:21:16;;;;;;;3.60;2.07;;;;;;;;;;5072988;28;20258;-65
2021/08/20 00:23:41;;;;;;;3.53;2.10;;;;;;;;;;5061447;28;20263;-65
2021/08/20 00:26:06;;;;;;;4.20;1.70;;;;;;;;;;5083136;28;20507;-65
2021/08/20 00:28:31;;;;;;;3.50;2.30;;;;;;;;;;5078867;28;20044;-65
2021/08/20 00:30:57;;;;;;;3.00;1.70;;;;;;;;;;5086566;28;20262;-66
2021/08/20 00:33:22;;;;;;;4.47;1.80;;;;;;;;;;5092512;28;20028;-65
2021/08/20 00:35:47;;;;;;;6.00;2.70;;;;;;;;;;5092283;28;20444;-66
2021/08/20 00:38:12;;;;;;;3.33;2.20;;;;;;;;;;5086664;28;20263;-65
2021/08/20 00:40:42;;;;;;;4.30;2.20;;;;;;;;;;5084651;28;20353;-64
2021/08/20 00:43:07;;;;;;;3.17;1.77;;;;;;;;;;5091742;28;20052;-65
2021/08/20 00:45:33;;;;;;;4.00;2.00;;;;;;;;;;5080155;28;20041;-65
2021/08/20 00:47:58;;;;;;;3.17;1.88;;;;;;;;;;5072573;28;20021;-65
2021/08/20 00:50:23;;;;;;;3.08;2.10;;;;;;;;;;5072652;28;20020;-65
2021/08/20 00:52:48;;;;;;;4.50;2.10;;;;;;;;;;5076902;28;20020;-66
2021/08/20 00:55:15;;;;;;;3.78;2.00;;;;;;;;;;5091985;28;20410;-66
2021/08/20 00:57:40;;;;;;;3.90;2.17;;;;;;;;;;5075387;28;20091;-65
2021/08/20 01:00:07;;;;;;;2.70;1.67;;;;;;;;;;5082269;28;20570;-66
2021/08/20 01:02:32;;;;;;;4.75;2.17;;;;;;;;;;5092010;28;20020;-65
2021/08/20 01:04:57;;;;;;;4.85;2.20;;;;;;;;;;5091450;28;20070;-65
2021/08/20 01:07:23;;;;;;;3.83;2.33;;;;;;;;;;5089696;28;20020;-66
2021/08/20 01:09:48;;;;;;;4.03;2.33;;;;;;;;;;5079127;28;20666;-65
2021/08/20 01:12:13;;;;;;;3.83;2.08;;;;;;;;;;5071847;28;20127;-65
2021/08/20 01:14:38;;;;;;;4.85;2.30;;;;;;;;;;5072545;28;20460;-66
2021/08/20 01:17:04;;;;;;;5.63;2.25;;;;;;;;;;5078847;28;20020;-66
2021/08/20 01:19:30;;;;;;;4.68;2.30;;;;;;;;;;5091386;28;20372;-65
2021/08/20 01:21:55;;;;;;;4.68;2.30;;;;;;;;;;5078390;28;20096;-65
2021/08/20 01:24:21;;;;;;;3.72;2.30;;;;;;;;;;5090168;28;20031;-65
2021/08/20 01:26:47;;;;;;;4.30;2.80;;;;;;;;;;5075421;28;20066;-66
2021/08/20 01:29:16;;;;;;;5.20;2.58;;;;;;;;;;5083893;28;20047;-65
2021/08/20 01:31:41;;;;;;;4.90;2.67;;;;;;;;;;5091217;28;20016;-65
2021/08/20 01:34:06;;;;;;;3.90;2.40;;;;;;;;;;5091046;28;20070;-66
2021/08/20 01:36:31;;;;;;;4.30;2.10;;;;;;;;;;5086538;28;20263;-66
2021/08/20 01:38:57;;;;;;;3.97;2.50;;;;;;;;;;5071735;28;20290;-65
2021/08/20 01:41:23;;;;;;;3.40;2.60;;;;;;;;;;5078306;28;20079;-66
2021/08/20 01:43:48;;;;;;;4.93;3.15;;;;;;;;;;5071201;28;20048;-66
2021/08/20 01:46:14;;;;;;;5.47;3.00;;;;;;;;;;5088139;28;20114;-66
2021/08/20 01:48:43;;;;;;;5.20;3.05;;;;;;;;;;5077552;28;20026;-65
2021/08/20 01:51:08;;;;;;;4.50;3.15;;;;;;;;;;5074380;28;20617;-66
2021/08/20 01:53:33;;;;;;;5.32;2.78;;;;;;;;;;5080761;28;20050;-66
2021/08/20 01:55:58;;;;;;;8.17;3.10;;;;;;;;;;5081918;28;20703;-66
2021/08/20 01:58:24;;;;;;;4.77;2.90;;;;;;;;;;5086857;28;20258;-66
2021/08/20 02:00:49;;;;;;;5.93;3.37;;;;;;;;;;5089128;28;21150;-65
2021/08/20 02:03:14;;;;;;;4.53;2.85;;;;;;;;;;5071278;28;20259;-66
2021/08/20 02:05:39;;;;;;;4.15;2.42;;;;;;;;;;5078097;28;20024;-65
2021/08/20 02:08:05;;;;;;;4.75;2.50;;;;;;;;;;5090333;28;20044;-65
2021/08/20 02:10:30;;;;;;;5.38;2.80;;;;;;;;;;5077473;28;20543;-66
2021/08/20 02:12:55;;;;;;;5.73;3.10;;;;;;;;;;5077490;28;20026;-66
2021/08/20 02:15:20;;;;;;;6.67;3.20;;;;;;;;;;5071144;28;20259;-66
2021/08/20 02:17:45;;;;;;;8.25;3.20;;;;;;;;;;5076509;28;20255;-67
2021/08/20 02:20:11;;;;;;;5.20;3.50;;;;;;;;;;5085139;28;20090;-65
2021/08/20 02:22:36;;;;;;;5.65;3.05;;;;;;;;;;5082117;28;20028;-65
2021/08/20 02:25:01;;;;;;;5.83;3.03;;;;;;;;;;5088292;28;20039;-66
2021/08/20 02:27:26;;;;;;;5.47;3.50;;;;;;;;;;5074556;28;20345;-66
2021/08/20 02:29:51;;;;;;;5.87;3.63;;;;;;;;;;5073396;28;20032;-65
2021/08/20 02:32:16;;;;;;;5.00;3.23;;;;;;;;;;5070974;28;20301;-66
2021/08/20 02:34:42;;;;;;;6.03;3.63;;;;;;;;;;5076915;28;20266;-65
2021/08/20 02:37:07;;;;;;;5.47;3.50;;;;;;;;;;5076879;28;20305;-66
2021/08/20 02:39:33;;;;;;;6.25;3.63;;;;;;;;;;5078556;28;20023;-66
2021/08/20 02:41:58;;;;;;;5.30;3.42;;;;;;;;;;5071591;28;20124;-66
2021/08/20 02:44:23;;;;;;;6.57;3.72;;;;;;;;;;5083284;28;20064;-66
2021/08/20 02:46:49;;;;;;;6.80;4.03;;;;;;;;;;5089611;28;20157;-66
2021/08/20 02:49:14;;;;;;;5.47;3.57;;;;;;;;;;5070089;28;20066;-66
2021/08/20 02:51:39;;;;;;;5.15;3.30;;;;;;;;;;5077007;28;20246;-66
2021/08/20 02:54:04;;;;;;;6.43;3.45;;;;;;;;;;5077037;28;20020;-66
2021/08/20 02:56:29;;;;;;;9.57;3.67;;;;;;;;;;5083860;28;20066;-65
2021/08/20 02:58:55;;;;;;;6.20;3.50;;;;;;;;;;5089402;28;20489;-66
2021/08/20 03:01:20;;;;;;;5.28;3.10;;;;;;;;;;5078644;28;20021;-66
2021/08/20 03:03:45;;;;;;;6.67;3.70;;;;;;;;;;5074333;28;20020;-67
2021/08/20 03:06:10;;;;;;;6.63;4.10;;;;;;;;;;5089542;28;20262;-67
2021/08/20 03:08:39;;;;;;;6.13;3.83;;;;;;;;;;5089505;28;20038;-66
2021/08/20 03:11:04;;;;;;;6.70;4.28;;;;;;;;;;5085675;28;20266;-66
2021/08/20 03:13:29;;;;;;;8.27;4.20;;;;;;;;;;5068423;28;20118;-66
2021/08/20 03:15:54;;;;;;;8.15;3.88;;;;;;;;;;5073534;28;20259;-66
2021/08/20 03:18:19;;;;;;;5.07;3.67;;;;;;;;;;5085356;28;20459;-66
2021/08/20 03:20:45;;;;;;;5.93;4.07;;;;;;;;;;5082838;28;20039;-65
2021/08/20 03:23:10;;;;;;;6.07;3.67;;;;;;;;;;5082587;28;20671;-66
2021/08/20 03:25:35;;;;;;;7.25;3.72;;;;;;;;;;5086138;28;20355;-65
2021/08/20 03:28:04;;;;;;;5.07;3.33;;;;;;;;;;5083699;28;20081;-67
2021/08/20 03:30:29;;;;;;;6.20;3.67;;;;;;;;;;5075249;28;20028;-66
2021/08/20 03:32:55;;;;;;;6.07;3.17;;;;;;;;;;5076797;28;20463;-65
2021/08/20 03:35:20;;;;;;;7.10;4.00;;;;;;;;;;5088642;28;20023;-66
2021/08/20 03:37:45;;;;;;;6.75;3.67;;;;;;;;;;5076220;28;20107;-66
2021/08/20 03:40:10;;;;;;;5.43;3.50;;;;;;;;;;5082807;28;20023;-66
2021/08/20 03:42:35;;;;;;;5.65;3.30;;;;;;;;;;5088553;28;20439;-66
2021/08/20 03:45:00;;;;;;;6.07;3.60;;;;;;;;;;5088938;28;20062;-66
2021/08/20 03:47:26;;;;;;;7.03;4.03;;;;;;;;;;5070183;28;20040;-67
2021/08/20 03:49:51;;;;;;;6.53;3.63;;;;;;;;;;5087095;28;20282;-66
2021/08/20 03:52:17;;;;;;;5.83;3.30;;;;;;;;;;5088814;28;20648;-66
2021/08/20 03:54:42;;;;;;;6.53;4.13;;;;;;;;;;5078609;28;20283;-66
2021/08/20 03:57:07;;;;;;;7.43;3.22;;;;;;;;;;5077733;28;20107;-66
2021/08/20 03:59:33;;;;;;;6.32;3.47;;;;;;;;;;5085535;28;20067;-66
2021/08/20 04:02:01;;;;;;;5.10;3.33;;;;;;;;;;5056507;28;20527;-66
2021/08/20 04:04:26;;;;;;;7.57;3.45;;;;;;;;;;5079782;28;20021;-66
2021/08/20 04:06:51;;;;;;;5.27;3.40;;;;;;;;;;5077648;28;20188;-66
2021/08/20 04:09:16;;;;;;;8.05;3.97;;;;;;;;;;5088771;28;20804;-66
2021/08/20 04:11:41;;;;;;;5.97;3.83;;;;;;;;;;5080986;28;20024;-66
2021/08/20 04:14:06;;;;;;;5.93;4.10;;;;;;;;;;5076044;28;20368;-66
2021/08/20 04:16:32;;;;;;;7.28;3.50;;;;;;;;;;5069157;28;20020;-66
2021/08/20 04:18:57;;;;;;;6.00;3.40;;;;;;;;;;5068889;28;20060;-66
2021/08/20 04:21:22;;;;;;;6.63;3.30;;;;;;;;;;5088318;28;20107;-66
2021/08/20 04:23:48;;;;;;;7.30;3.58;;;;;;;;;;5075962;28;20430;-65
2021/08/20 04:26:13;;;;;;;5.88;3.13;;;;;;;;;;5074829;28;20468;-65
2021/08/20 04:28:38;;;;;;;5.68;3.80;;;;;;;;;;5080528;28;20108;-65
2021/08/20 04:31:03;;;;;;;6.30;4.03;;;;;;;;;;5070513;28;20123;-66
2021/08/20 04:33:28;;;;;;;5.35;3.53;;;;;;;;;;5073261;28;20023;-67
2021/08/20 04:35:54;;;;;;;6.07;3.23;;;;;;;;;;5059763;28;20059;-65
2021/08/20 04:38:19;;;;;;;7.70;3.47;;;;;;;;;;5078744;28;20353;-66
2021/08/20 04:40:44;;;;;;;6.27;3.80;;;;;;;;;;5088019;28;20054;-66
2021/08/20 04:43:09;;;;;;;5.50;3.23;;;;;;;;;;5074653;28;20282;-66
2021/08/20 04:45:34;;;;;;;6.43;3.72;;;;;;;;;;5085806;28;20329;-67
2021/08/20 04:47:59;;;;;;;5.97;3.70;;;;;;;;;;5070534;28;20016;-66
2021/08/20 04:50:28;;;;;;;5.70;3.77;;;;;;;;;;5087099;28;20255;-66
2021/08/20 04:52:53;;;;;;;6.00;3.22;;;;;;;;;;5068975;28;20266;-66
2021/08/20 04:55:19;;;;;;;7.32;3.10;;;;;;;;;;5079282;28;20024;-66
2021/08/20 04:57:44;;;;;;;6.80;3.50;;;;;;;;;;5082532;28;20012;-66
2021/08/20 05:00:09;;;;;;;7.00;4.05;;;;;;;;;;5086074;28;20254;-65
2021/08/20 05:02:36;;;;;;;5.63;3.38;;;;;;;;;;5085237;28;20020;-67
2021/08/20 05:05:01;;;;;;;4.97;3.38;;;;;;;;;;5079015;28;20122;-66
2021/08/20 05:07:26;;;;;;;6.90;3.72;;;;;;;;;;5079134;28;20074;-66
2021/08/20 05:09:52;;;;;;;7.38;4.03;;;;;;;;;;5072303;28;20020;-66
2021/08/20 05:12:17;;;;;;;5.88;3.30;;;;;;;;;;5090736;28;20074;-67
2021/08/20 05:14:42;;;;;;;9.50;3.63;;;;;;;;;;5080519;28;20024;-66
2021/08/20 05:17:07;;;;;;;6.63;3.30;;;;;;;;;;5076293;28;20016;-65
2021/08/20 05:19:32;;;;;;;6.75;3.33;;;;;;;;;;5081223;28;20356;-66
2021/08/20 05:21:57;;;;;;;7.28;3.45;;;;;;;;;;5072178;28;20012;-66
2021/08/20 05:24:23;;;;;;;8.00;3.57;;;;;;;;;;5071977;28;20046;-66
2021/08/20 05:26:48;;;;;;;6.03;3.05;;;;;;;;;;5072380;28;20263;-66
2021/08/20 05:29:13;;;;;;;5.37;3.30;;;;;;;;;;5071780;28;20028;-65
2021/08/20 05:31:38;;;;;;;4.13;3.03;;;;;;;;;;5074053;28;20342;-65
2021/08/20 05:34:03;;;;;;;5.78;3.20;;;;;;;;;;5083203;28;20237;-66
2021/08/20 05:36:29;;;;;;;5.13;3.55;;;;;;;;;;5071795;28;20387;-66
2021/08/20 05:38:54;;;;;;;5.75;3.50;;;;;;;;;;5085450;28;20020;-66
2021/08/20 05:41:19;;;;;;;6.80;3.17;;;;;;;;;;5085272;28;20045;-66
2021/08/20 05:43:44;;;;;;;5.20;3.22;;;;;;;;;;5090753;28;20066;-65
2021/08/20 05:46:10;;;;;;;5.35;3.22;;;;;;;;;;5078217;28;20020;-66
2021/08/20 05:48:35;;;;;;;4.97;3.13;;;;;;;;;;5077666;28;20032;-67
2021/08/20 05:51:00;;;;;;;5.07;3.15;;;;;;;;;;5090990;28;20511;-67
2021/08/20 05:53:25;;;;;;;5.88;3.28;;;;;;;;;;5079241;28;20517;-65
2021/08/20 05:55:51;;;;;;;5.13;2.90;;;;;;;;;;5075389;28;20379;-66
2021/08/20 05:58:16;;;;;;;5.90;2.90;;;;;;;;;;5084761;28;20852;-67
2021/08/20 06:00:41;;;;;;;4.90;2.67;;;;;;;;;;5084953;28;20032;-66
2021/08/20 06:03:06;;;;;;;4.97;3.20;;;;;;;;;;5070950;28;20278;-66
2021/08/20 06:05:31;;;;;;;5.63;3.33;;;;;;;;;;5071554;28;20031;-66
2021/08/20 06:07:56;;;;;;;7.27;3.50;;;;;;;;;;5061406;28;20539;-66
2021/08/20 06:10:22;;;;;;;5.30;3.10;;;;;;;;;;5074516;28;20259;-65
2021/08/20 06:12:47;;;;;;;5.25;2.90;;;;;;;;;;5077678;28;20023;-65
2021/08/20 06:15:13;;;;;;;4.97;3.38;;;;;;;;;;5070986;28;20463;-65
2021/08/20 06:17:38;;;;;;;6.25;3.65;;;;;;;;;;5077717;28;20505;-66
2021/08/20 06:20:04;;;;;;;5.88;3.30;;;;;;;;;;5071094;28;20021;-66
2021/08/20 06:22:30;;;;;;;5.65;3.42;;;;;;;;;;5070850;28;20079;-67
2021/08/20 06:24:55;;;;;;;7.22;3.22;;;;;;;;;;5076883;28;20063;-66
2021/08/20 06:27:20;;;;;;;4.90;3.20;;;;;;;;;;5084000;28;20438;-66
2021/08/20 06:29:45;;;;;;;5.60;3.00;;;;;;;;;;5070915;28;20306;-66
2021/08/20 06:32:10;;;;;;;6.07;3.23;;;;;;;;;;5089344;28;20341;-66
2021/08/20 06:34:35;;;;;;;4.27;2.67;;;;;;;;;;5071748;28;20274;-65
2021/08/20 06:37:01;;;;;;;4.30;2.80;;;;;;;;;;5070212;28;20745;-66
2021/08/20 06:39:26;;;;;;;5.65;3.30;;;;;;;;;;5070797;28;20106;-66
2021/08/20 06:41:51;;;;;;;5.13;3.00;;;;;;;;;;5070141;28;20383;-65
2021/08/20 06:44:16;;;;;;;5.70;3.20;;;;;;;;;;5051851;28;20377;-66
2021/08/20 06:46:41;;;;;;;5.63;2.70;;;;;;;;;;5070465;28;20274;-66
2021/08/20 06:49:08;;;;;;;4.90;2.88;;;;;;;;;;5070168;28;20261;-66
2021/08/20 06:51:33;;;;;;;5.95;3.33;;;;;;;;;;5072725;28;20028;-65
2021/08/20 06:53:58;;;;;;;6.00;3.10;;;;;;;;;;5087514;28;20028;-67
2021/08/20 06:56:23;;;;;;;6.17;3.40;;;;;;;;;;5081404;28;20020;-66
2021/08/20 06:58:48;;;;;;;8.97;3.60;;;;;;;;;;5077162;28;20255;-65
2021/08/20 07:01:14;;;;;;;7.67;3.63;;;;;;;;;;5070331;28;20312;-66
2021/08/20 07:03:39;;;;;;;9.30;3.75;;;;;;;;;;5076961;28;20262;-65
2021/08/20 07:06:04;;;;;;;6.63;3.33;;;;;;;;;;5089434;28;20076;-66
2021/08/20 07:08:29;;;;;;;5.03;2.85;;;;;;;;;;5089757;28;20254;-66
2021/08/20 07:10:54;;;;;;;4.38;3.08;;;;;;;;;;5083710;28;20017;-66
2021/08/20 07:13:20;;;;;;;5.43;3.03;;;;;;;;;;5081717;28;20023;-66
2021/08/20 07:15:45;;;;;;;5.47;3.30;;;;;;;;;;5089673;28;20031;-66
2021/08/20 07:18:10;;;;;;;7.40;3.58;;;;;;;;;;5089283;28;20114;-66
2021/08/20 07:20:36;;;;;;;5.97;3.30;;;;;;;;;;5089180;28;20035;-66
2021/08/20 07:23:01;;;;;;;6.43;3.50;;;;;;;;;;5088396;28;20491;-65
2021/08/20 07:25:26;;;;;;;8.70;3.60;;;;;;;;;;5080534;28;20028;-65
2021/08/20 07:27:51;;;;;;;6.23;3.63;;;;;;;;;;5076249;28;20613;-66
2021/08/20 07:30:16;;;;;;;5.72;3.40;;;;;;;;;;5069689;28;20267;-66
2021/08/20 07:32:43;;;;;;;6.22;3.50;;;;;;;;;;5085403;28;20020;-66
2021/08/20 07:35:08;;;;;;;5.35;3.60;;;;;;;;;;5087237;28;20020;-66
2021/08/20 07:37:33;;;;;;;7.05;3.45;;;;;;;;;;5082270;28;20050;-65
2021/08/20 07:40:00;;;;;;;4.77;3.10;;;;;;;;;;5070436;28;20038;-66
2021/08/20 07:42:25;;;;;;;6.03;3.25;;;;;;;;;;5082149;28;20290;-66
2021/08/20 07:44:50;;;;;;;8.48;3.78;;;;;;;;;;5082508;28;20136;-66
2021/08/20 07:47:16;;;;;;;5.20;3.55;;;;;;;;;;5088993;28;20627;-66
2021/08/20 07:49:41;;;;;;;5.50;3.50;;;;;;;;;;5075643;28;20761;-65
2021/08/20 07:52:06;;;;;;;5.90;3.53;;;;;;;;;;5069509;28;20302;-66
2021/08/20 07:54:31;;;;;;;6.50;3.40;;;;;;;;;;5088504;28;20925;-66
2021/08/20 07:56:56;;;;;;;5.73;3.20;;;;;;;;;;5075474;28;20013;-66
2021/08/20 07:59:22;;;;;;;5.90;4.00;;;;;;;;;;5074232;28;20262;-65
2021/08/20 08:01:47;;;;;;;5.63;3.33;;;;;;;;;;5088711;28;20066;-66
2021/08/20 08:04:12;;;;;;;7.53;3.27;;;;;;;;;;5077608;28;20298;-66
2021/08/20 08:06:38;;;;;;;6.57;3.65;;;;;;;;;;5069350;28;20626;-65
2021/08/20 08:09:04;;;;;;;6.72;3.47;;;;;;;;;;5069131;28;20035;-66
2021/08/20 08:11:31;;;;;;;5.70;3.92;;;;;;;;;;5082726;28;20016;-65
2021/08/20 08:14:03;;;;;;;8.32;3.60;;;;;;;;;;5072299;28;20462;-65
2021/08/20 08:16:28;;;;;;;6.35;4.18;;;;;;;;;;5082314;28;20051;-66
2021/08/20 08:18:53;;;;;;;9.27;3.97;;;;;;;;;;5088415;28;20525;-67
2021/08/20 08:21:18;;;;;;;6.73;3.53;;;;;;;;;;5088198;28;20161;-66
2021/08/20 08:23:43;;;;;;;7.50;3.57;;;;;;;;;;5079826;28;20263;-66
2021/08/20 08:26:09;;;;;;;6.03;3.53;;;;;;;;;;5070845;28;20278;-66
2021/08/20 08:28:34;;;;;;;7.00;3.63;;;;;;;;;;5069080;28;20293;-66
2021/08/20 08:31:02;;;;;;;6.95;3.28;;;;;;;;;;5069744;28;20263;-66
2021/08/20 08:33:27;;;;;;;5.30;3.08;;;;;;;;;;5090444;28;20115;-66
2021/08/20 08:35:52;;;;;;;6.18;3.63;;;;;;;;;;5092240;28;20099;-66
2021/08/20 08:38:17;;;;;;;6.60;3.37;;;;;;;;;;5085184;28;20446;-66
2021/08/20 08:40:45;;;;;;;5.97;3.20;;;;;;;;;;5073010;28;20265;-66
2021/08/20 08:43:10;;;;;;;4.25;3.00;;;;;;;;;;5085002;28;20326;-66
2021/08/20 08:45:36;;;;;;;5.90;3.63;;;;;;;;;;5092500;28;20070;-65
2021/08/20 08:48:03;;;;;;;5.53;3.47;;;;;;;;;;5079712;28;20024;-66
2021/08/20 08:50:29;;;;;;;5.47;3.40;;;;;;;;;;5091788;28;20028;-66
2021/08/20 08:52:54;;;;;;;8.00;3.20;;;;;;;;;;5073576;28;20345;-65
2021/08/20 08:55:19;;;;;;;6.13;3.63;;;;;;;;;;5083241;28;20356;-66
2021/08/20 08:57:44;;;;;;;6.15;3.53;;;;;;;;;;5091735;28;20023;-65
2021/08/20 09:00:10;;;;;;;7.15;3.78;;;;;;;;;;5081480;28;20055;-66
2021/08/20 09:02:35;;;;;;;7.00;3.80;;;;;;;;;;5085575;28;20110;-66
2021/08/20 09:05:01;;;;;;;6.75;4.63;;;;;;;;;;5075227;28;20089;-66
2021/08/20 09:07:28;;;;;;;6.22;3.70;;;;;;;;;;5092058;28;20055;-65
2021/08/20 09:10:12;;;;;;;7.53;3.75;;;;;;;;;;5084874;28;20181;-66
2021/08/20 09:12:37;;;;;;;6.35;3.70;;;;;;;;;;5090942;28;20027;-65
2021/08/20 09:15:03;;;;;;;7.10;3.95;;;;;;;;;;5073750;28;20016;-66
2021/08/20 09:17:29;;;;;;;8.48;3.97;;;;;;;;;;5076299;28;20023;-65
2021/08/20 09:20:12;;;;;;;8.18;3.88;;;;;;;;;;5074275;28;20021;-65
2021/08/20 09:22:37;;;;;;;4.88;3.33;;;;;;;;;;5084507;28;20016;-65
2021/08/20 09:25:02;;;;;;;7.97;4.13;;;;;;;;;;5062641;28;20029;-66
2021/08/20 09:27:28;;;;;;;8.27;4.38;;;;;;;;;;5091594;28;20346;-66
2021/08/20 09:29:55;;;;;;;7.00;4.50;;;;;;;;;;5086629;28;20024;-66
2021/08/20 09:32:21;;;;;;;9.07;4.25;;;;;;;;;;5076235;28;20073;-65
2021/08/20 09:34:50;;;;;;;5.63;3.67;;;;;;;;;;5084908;28;20023;-66
2021/08/20 09:37:15;;;;;;;6.82;4.32;;;;;;;;;;5090998;28;20044;-66
2021/08/20 09:39:45;;;;;;;12.63;4.35;;;;;;;;;;5091042;28;20091;-66
2021/08/20 09:42:12;;;;;;;7.03;4.30;;;;;;;;;;5080291;28;20044;-66
2021/08/20 09:44:38;;;;;;;6.88;4.38;;;;;;;;;;5083625;28;20035;-65
2021/08/20 09:47:05;;;;;;;9.15;4.18;;;;;;;;;;5071580;28;20456;-65
2021/08/20 09:49:30;;;;;;;6.82;4.32;;;;;;;;;;5078135;28;20061;-66
2021/08/20 09:51:56;;;;;;;5.10;3.28;;;;;;;;;;5071700;28;20024;-66
2021/08/20 09:54:23;;;;;;;5.45;3.00;;;;;;;;;;5087578;28;20039;-65
2021/08/20 09:56:48;;;;;;;7.53;2.88;;;;;;;;;;5089317;28;20050;-65
2021/08/20 09:59:14;;;;;;;4.93;2.50;;;;;;;;;;5075454;28;20021;-66
2021/08/20 10:01:40;;;;;;;3.92;1.77;;;;;;;;;;5071110;28;20020;-65
2021/08/20 10:04:06;;;;;;;3.50;1.90;;;;;;;;;;5071198;28;20147;-65
2021/08/20 10:06:36;;;;;;;4.80;2.20;;;;;;;;;;5077456;28;20047;-65
2021/08/20 10:09:05;;;;;;;2.72;1.80;;;;;;;;;;5070827;28;20070;-66
2021/08/20 10:11:33;;;;;;;3.53;1.98;;;;;;;;;;5071304;28;20487;-65
2021/08/20 10:13:59;;;;;;;2.88;1.58;;;;;;;;;;5077483;28;20016;-65
2021/08/20 10:16:24;;;;;;;2.83;1.55;;;;;;;;;;5070792;28;20107;-66
2021/08/20 10:18:50;;;;;;;3.28;2.17;;;;;;;;;;5085141;28;20161;-65
2021/08/20 10:21:16;;;;;;;4.00;2.05;;;;;;;;;;5089644;28;20063;-64
2021/08/20 10:23:41;;;;;;;3.40;1.77;;;;;;;;;;5077561;28;20012;-65
2021/08/20 10:26:08;;;;;;;3.22;2.00;;;;;;;;;;5083541;28;20032;-66
2021/08/20 10:28:34;;;;;;;2.70;1.80;;;;;;;;;;5084063;28;20012;-65
2021/08/20 10:31:00;;;;;;;3.65;2.05;;;;;;;;;;5083493;28;20046;-65
2021/08/20 10:33:29;;;;;;;2.50;1.70;;;;;;;;;;5070940;28;20117;-64
2021/08/20 10:35:55;;;;;;;4.43;1.80;;;;;;;;;;5070926;28;20111;-66
2021/08/20 10:38:47;;;;;;;2.75;1.75;;;;;;;;;;5082389;28;20107;-66
2021/08/20 10:41:16;;;;;;;3.72;1.65;;;;;;;;;;5086469;28;20036;-66
2021/08/20 10:43:54;;;;;;;3.97;1.60;;;;;;;;;;5074353;28;20214;-66
2021/08/20 10:46:31;;;;;;;3.95;1.80;;;;;;;;;;5080734;28;20387;-65
2021/08/20 10:49:21;;;;;;;4.97;2.03;;;;;;;;;;5089899;28;20020;-65
2021/08/20 10:51:49;;;;;;;3.03;1.65;;;;;;;;;;5084495;28;20103;-65
2021/08/20 10:54:17;;;;;;;2.42;1.63;;;;;;;;;;5082806;28;20620;-65
2021/08/20 10:56:42;;;;;;;2.70;1.42;;;;;;;;;;5074979;28;20040;-66
2021/08/20 10:59:07;;;;;;;3.33;1.85;;;;;;;;;;5076776;28;20027;-65
2021/08/20 11:01:33;;;;;;;2.95;1.55;;;;;;;;;;5076549;28;20031;-66
2021/08/20 11:03:59;;;;;;;7.28;1.98;;;;;;;;;;5083073;28;20042;-65
2021/08/20 11:06:43;;;;;;;3.70;1.70;;;;;;;;;;5089772;28;20028;-66
2021/08/20 11:09:24;;;;;;;5.10;1.70;;;;;;;;;;5077942;28;20058;-65
2021/08/20 11:11:52;;;;;;;3.20;1.65;;;;;;;;;;5089374;28;20031;-65
2021/08/20 11:14:27;;;;;;;4.75;1.83;;;;;;;;;;5089515;28;20077;-65
2021/08/20 11:16:53;;;;;;;2.60;1.67;;;;;;;;;;5082810;28;20024;-66
2021/08/20 11:19:43;;;;;;;3.95;2.03;;;;;;;;;;5075801;28;20046;-65
2021/08/20 11:22:12;;;;;;;3.78;2.05;;;;;;;;;;5089040;28;20034;-66
2021/08/20 11:24:37;;;;;;;2.67;1.90;;;;;;;;;;5082669;28;20059;-65
2021/08/20 11:27:15;;;;;;;3.60;2.03;;;;;;;;;;5084555;28;20258;-64
2021/08/20 11:29:43;;;;;;;4.05;1.90;;;;;;;;;;5081266;28;20353;-65
2021/08/20 11:32:08;;;;;;;3.25;2.05;;;;;;;;;;5076289;28;20020;-65
2021/08/20 11:34:33;;;;;;;3.15;1.92;;;;;;;;;;5069543;28;20956;-65
2021/08/20 11:37:04;;;;;;;5.10;2.33;;;;;;;;;;5082930;28;20066;-65
2021/08/20 11:39:31;;;;;;;3.10;1.98;;;;;;;;;;5088514;28;20035;-64
2021/08/20 11:42:08;;;;;;;3.67;1.95;;;;;;;;;;5083094;28;20041;-66
2021/08/20 11:44:33;;;;;;;3.58;2.00;;;;;;;;;;5080480;28;20040;-65
2021/08/20 11:46:58;;;;;;;3.53;2.43;;;;;;;;;;5069621;28;20022;-65
2021/08/20 11:49:24;;;;;;;3.87;1.73;;;;;;;;;;5069106;28;20521;-65
2021/08/20 11:51:51;;;;;;;3.38;1.95;;;;;;;;;;5069998;28;20266;-68
2021/08/20 11:54:16;;;;;;;4.38;2.00;;;;;;;;;;5088557;28;20069;-65
2021/08/20 11:56:49;;;;;;;3.67;2.00;;;;;;;;;;5084363;28;20024;-66
2021/08/20 11:59:14;;;;;;;3.67;1.67;;;;;;;;;;5069502;28;20024;-65
2021/08/20 12:01:40;;;;;;;4.43;1.90;;;;;;;;;;5082292;28;20081;-65
2021/08/20 12:04:06;;;;;;;5.68;2.08;;;;;;;;;;5082263;28;20730;-65
2021/08/20 12:06:33;;;;;;;3.53;1.70;;;;;;;;;;5069258;28;20036;-66
2021/08/20 12:09:11;;;;;;;4.38;2.45;;;;;;;;;;5075018;28;20047;-65
2021/08/20 12:11:37;;;;;;;4.50;1.95;;;;;;;;;;5075784;28;20035;-65
2021/08/20 12:14:02;;;;;;;3.85;2.00;;;;;;;;;;5069039;28;20062;-64
2021/08/20 12:16:30;;;;;;;3.00;1.90;;;;;;;;;;5082494;28;20024;-65
2021/08/20 12:18:56;;;;;;;3.00;1.80;;;;;;;;;;5088493;28;20343;-64
2021/08/20 12:21:21;;;;;;;2.78;1.70;;;;;;;;;;5082110;28;20028;-65
2021/08/20 12:23:59;;;;;;;2.87;2.00;;;;;;;;;;5082375;28;20097;-63
2021/08/20 12:26:25;;;;;;;2.58;1.65;;;;;;;;;;5070153;28;20267;-65
2021/08/20 12:28:50;;;;;;;3.15;2.10;;;;;;;;;;5069082;28;20346;-64
2021/08/20 12:31:19;;;;;;;2.78;1.58;;;;;;;;;;5068849;28;20107;-66
2021/08/20 12:33:57;;;;;;;7.28;2.00;;;;;;;;;;5088280;28;20391;-66
2021/08/20 12:36:23;;;;;;;4.53;1.95;;;;;;;;;;5076924;28;20051;-65
2021/08/20 12:38:48;;;;;;;3.10;1.70;;;;;;;;;;5081275;28;20047;-65
2021/08/20 12:41:25;;;;;;;3.17;1.80;;;;;;;;;;5082568;28;20621;-65
2021/08/20 12:43:51;;;;;;;3.28;2.10;;;;;;;;;;5081541;28;20036;-65
2021/08/20 12:46:20;;;;;;;3.40;2.10;;;;;;;;;;5086622;28;20036;-66
2021/08/20 12:48:54;;;;;;;3.17;1.90;;;;;;;;;;5068506;28;20024;-65
2021/08/20 12:51:20;;;;;;;3.10;1.90;;;;;;;;;;5077728;28;20028;-65
2021/08/20 12:53:58;;;;;;;6.50;1.70;;;;;;;;;;5088085;28;20012;-65
2021/08/20 12:56:29;;;;;;;3.03;1.90;;;;;;;;;;5074153;28;20091;-65
2021/08/20 12:58:58;;;;;;;3.90;1.75;;;;;;;;;;5068862;28;20158;-65
2021/08/20 13:01:23;;;;;;;3.25;1.75;;;;;;;;;;5068982;28;20399;-64
2021/08/20 13:03:48;;;;;;;2.83;1.80;;;;;;;;;;5078894;28;20032;-64
2021/08/20 13:06:13;;;;;;;3.20;1.63;;;;;;;;;;5087858;28;20031;-65
2021/08/20 13:08:39;;;;;;;3.60;1.87;;;;;;;;;;5063125;28;20035;-66
2021/08/20 13:11:04;;;;;;;3.30;1.80;;;;;;;;;;5085886;28;20501;-66
2021/08/20 13:13:29;;;;;;;2.78;1.60;;;;;;;;;;5075544;28;20345;-66
2021/08/20 13:15:55;;;;;;;2.88;1.90;;;;;;;;;;5068524;28;20440;-64
2021/08/20 13:18:20;;;;;;;3.25;1.77;;;;;;;;;;5082379;28;20433;-65
2021/08/20 13:20:46;;;;;;;2.53;1.63;;;;;;;;;;5076433;28;20020;-66
2021/08/20 13:23:12;;;;;;;3.05;1.90;;;;;;;;;;5060451;28;20089;-66
2021/08/20 13:25:37;;;;;;;4.88;1.95;;;;;;;;;;5084635;28;20032;-64
2021/08/20 13:28:02;;;;;;;2.50;1.70;;;;;;;;;;5077933;28;20024;-65
2021/08/20 13:30:27;;;;;;;4.05;1.90;;;;;;;;;;5091496;28;20038;-66
2021/08/20 13:32:53;;;;;;;2.88;1.85;;;;;;;;;;5072786;28;20024;-65
2021/08/20 13:35:18;;;;;;;2.90;1.83;;;;;;;;;;5090130;28;20024;-65
2021/08/20 13:37:43;;;;;;;2.87;1.80;;;;;;;;;;5086668;28;20750;-66
2021/08/20 13:40:08;;;;;;;2.87;1.83;;;;;;;;;;5078946;28;20259;-65
2021/08/20 13:42:33;;;;;;;3.72;2.10;;;;;;;;;;5071365;28;20495;-65
2021/08/20 13:44:58;;;;;;;2.87;1.57;;;;;;;;;;5071797;28;20063;-65
2021/08/20 13:47:24;;;;;;;2.97;1.70;;;;;;;;;;5071807;28;20764;-66
2021/08/20 13:49:49;;;;;;;2.53;1.80;;;;;;;;;;5071991;28;20438;-66
2021/08/20 13:52:14;;;;;;;3.07;1.80;;;;;;;;;;5071436;28;20046;-67
2021/08/20 13:54:39;;;;;;;3.23;1.87;;;;;;;;;;5071420;28;20085;-65
2021/08/20 13:57:04;;;;;;;3.20;1.73;;;;;;;;;;5089405;28;20257;-65
2021/08/20 13:59:30;;;;;;;4.20;2.10;;;;;;;;;;5076867;28;20109;-65
2021/08/20 14:01:55;;;;;;;3.80;1.70;;;;;;;;;;5071851;28;20020;-65
2021/08/20 14:04:20;;;;;;;3.10;1.70;;;;;;;;;;5077243;28;20032;-65
2021/08/20 14:06:45;;;;;;;4.20;2.70;;;;;;;;;;5071389;28;20321;-66
2021/08/20 14:09:10;;;;;;;3.58;1.90;;;;;;;;;;5077955;28;20344;-65
2021/08/20 14:11:36;;;;;;;3.03;1.87;;;;;;;;;;5083561;28;20088;-64
2021/08/20 14:14:01;;;;;;;2.90;1.90;;;;;;;;;;5071603;28;20029;-64
2021/08/20 14:16:26;;;;;;;5.28;2.17;;;;;;;;;;5070961;28;20021;-65
2021/08/20 14:18:52;;;;;;;3.43;2.07;;;;;;;;;;5070910;28;20024;-65
2021/08/20 14:21:17;;;;;;;4.65;2.10;;;;;;;;;;5075276;28;20134;-65
2021/08/20 14:23:43;;;;;;;2.92;1.85;;;;;;;;;;5073506;28;20023;-65
2021/08/20 14:26:08;;;;;;;4.13;2.47;;;;;;;;;;5077932;28;20059;-65
2021/08/20 14:28:33;;;;;;;2.80;2.10;;;;;;;;;;5070763;28;20047;-66
2021/08/20 14:30:58;;;;;;;3.67;1.90;;;;;;;;;;5086305;28;20036;-65
2021/08/20 14:33:23;;;;;;;3.77;1.97;;;;;;;;;;5088326;28;20277;-66
2021/08/20 14:35:49;;;;;;;2.90;1.90;;;;;;;;;;5070870;28;20318;-64
2021/08/20 14:38:14;;;;;;;4.88;2.00;;;;;;;;;;5070615;28;20261;-66